sensor_id;sensor_type;location;lat;lon;timestamp;P1;durP1;ratioP1;P2;durP2;ratioP2
47762;SDS011;33526;42.690;23.322;2023-07-20T00:01:26;8.23;;;2.55;;
47762;SDS011;33526;42.690;23.322;2023-07-20T00:03:53;11.98;;;3.03;;
47762;SDS011;33526;42.690;23.322;2023-07-20T00:06:24;9.68;;;2.33;;
47762;SDS011;33526;42.690;23.322;2023-07-20T00:08:51;7.75;;;2.65;;
47762;SDS011;33526;42.690;23.322;2023-07-20T00:11:17;10.80;;;3.45;;
47762;SDS011;33526;42.690;23.322;2023-07-20T00:13:44;12.93;;;3.45;;
47762;SDS011;33526;42.690;23.322;2023-07-20T00:16:10;12.25;;;3.35;;
47762;SDS011;33526;42.690;23.322;2023-07-20T00:18:38;10.60;;;2.97;;
47762;SDS011;33526;42.690;23.322;2023-07-20T00:21:04;9.38;;;3.13;;
47762;SDS011;33526;42.690;23.322;2023-07-20T00:23:30;14.45;;;3.40;;
47762;SDS011;33526;42.690;23.322;2023-07-20T00:25:56;10.02;;;3.42;;
47762;SDS011;33526;42.690;23.322;2023-07-20T00:28:22;8.63;;;3.13;;
47762;SDS011;33526;42.690;23.322;2023-07-20T00:30:49;9.23;;;3.05;;
47762;SDS011;33526;42.690;23.322;2023-07-20T00:33:17;7.78;;;2.50;;
47762;SDS011;33526;42.690;23.322;2023-07-20T00:35:43;9.50;;;3.10;;
47762;SDS011;33526;42.690;23.322;2023-07-20T00:38:09;7.20;;;2.80;;
47762;SDS011;33526;42.690;23.322;2023-07-20T00:40:39;11.37;;;2.67;;
47762;SDS011;33526;42.690;23.322;2023-07-20T00:43:06;10.57;;;2.60;;
47762;SDS011;33526;42.690;23.322;2023-07-20T00:45:33;6.72;;;2.15;;
47762;SDS011;33526;42.690;23.322;2023-07-20T00:48:01;8.68;;;2.53;;
47762;SDS011;33526;42.690;23.322;2023-07-20T00:50:28;8.10;;;2.90;;
47762;SDS011;33526;42.690;23.322;2023-07-20T00:52:57;13.60;;;2.75;;
47762;SDS011;33526;42.690;23.322;2023-07-20T00:55:30;11.75;;;3.08;;
47762;SDS011;33526;42.690;23.322;2023-07-20T00:57:57;15.77;;;3.77;;
47762;SDS011;33526;42.690;23.322;2023-07-20T01:00:24;7.53;;;2.58;;
47762;SDS011;33526;42.690;23.322;2023-07-20T01:02:52;10.07;;;3.58;;
47762;SDS011;33526;42.690;23.322;2023-07-20T01:05:18;6.68;;;2.72;;
47762;SDS011;33526;42.690;23.322;2023-07-20T01:13:05;8.02;;;2.92;;
47762;SDS011;33526;42.690;23.322;2023-07-20T01:15:35;8.18;;;2.78;;
47762;SDS011;33526;42.690;23.322;2023-07-20T01:18:03;8.80;;;2.50;;
47762;SDS011;33526;42.690;23.322;2023-07-20T01:20:31;7.10;;;2.67;;
47762;SDS011;33526;42.690;23.322;2023-07-20T01:29:12;8.48;;;2.75;;
47762;SDS011;33526;42.690;23.322;2023-07-20T01:31:47;10.15;;;2.92;;
47762;SDS011;33526;42.690;23.322;2023-07-20T01:34:17;8.55;;;2.40;;
47762;SDS011;33526;42.690;23.322;2023-07-20T01:36:47;11.32;;;3.28;;
47762;SDS011;33526;42.690;23.322;2023-07-20T01:39:20;5.82;;;2.40;;
47762;SDS011;33526;42.690;23.322;2023-07-20T01:41:54;11.05;;;2.67;;
47762;SDS011;33526;42.690;23.322;2023-07-20T01:44:20;7.82;;;2.60;;
47762;SDS011;33526;42.690;23.322;2023-07-20T01:46:46;8.18;;;2.50;;
47762;SDS011;33526;42.690;23.322;2023-07-20T01:49:12;7.25;;;2.65;;
47762;SDS011;33526;42.690;23.322;2023-07-20T01:51:42;10.93;;;2.85;;
47762;SDS011;33526;42.690;23.322;2023-07-20T01:54:08;9.55;;;2.88;;
47762;SDS011;33526;42.690;23.322;2023-07-20T01:56:34;14.40;;;3.05;;
47762;SDS011;33526;42.690;23.322;2023-07-20T01:59:01;6.05;;;2.22;;
47762;SDS011;33526;42.690;23.322;2023-07-20T02:01:27;11.68;;;2.63;;
47762;SDS011;33526;42.690;23.322;2023-07-20T02:03:53;10.70;;;2.42;;
47762;SDS011;33526;42.690;23.322;2023-07-20T02:06:19;6.82;;;2.60;;
47762;SDS011;33526;42.690;23.322;2023-07-20T02:08:45;7.75;;;2.50;;
47762;SDS011;33526;42.690;23.322;2023-07-20T02:11:11;6.30;;;2.25;;
47762;SDS011;33526;42.690;23.322;2023-07-20T02:13:38;9.23;;;2.78;;
47762;SDS011;33526;42.690;23.322;2023-07-20T02:18:29;6.70;;;2.28;;
47762;SDS011;33526;42.690;23.322;2023-07-20T02:20:55;10.65;;;2.78;;
47762;SDS011;33526;42.690;23.322;2023-07-20T02:23:21;9.88;;;3.00;;
47762;SDS011;33526;42.690;23.322;2023-07-20T02:25:46;9.80;;;2.92;;
47762;SDS011;33526;42.690;23.322;2023-07-20T02:28:13;10.37;;;2.93;;
47762;SDS011;33526;42.690;23.322;2023-07-20T02:33:05;10.90;;;2.55;;
47762;SDS011;33526;42.690;23.322;2023-07-20T02:35:33;11.07;;;3.08;;
47762;SDS011;33526;42.690;23.322;2023-07-20T02:37:59;9.27;;;2.15;;
47762;SDS011;33526;42.690;23.322;2023-07-20T02:42:52;8.80;;;2.53;;
47762;SDS011;33526;42.690;23.322;2023-07-20T02:45:18;6.50;;;2.53;;
47762;SDS011;33526;42.690;23.322;2023-07-20T02:47:45;12.75;;;2.83;;
47762;SDS011;33526;42.690;23.322;2023-07-20T02:50:13;7.25;;;2.60;;
47762;SDS011;33526;42.690;23.322;2023-07-20T02:52:39;6.60;;;2.80;;
47762;SDS011;33526;42.690;23.322;2023-07-20T02:57:35;15.70;;;3.70;;
47762;SDS011;33526;42.690;23.322;2023-07-20T03:00:01;9.30;;;2.80;;
47762;SDS011;33526;42.690;23.322;2023-07-20T03:02:29;9.68;;;2.50;;
47762;SDS011;33526;42.690;23.322;2023-07-20T03:05:05;10.67;;;2.73;;
47762;SDS011;33526;42.690;23.322;2023-07-20T03:07:37;13.27;;;2.87;;
47762;SDS011;33526;42.690;23.322;2023-07-20T03:10:07;9.80;;;2.75;;
47762;SDS011;33526;42.690;23.322;2023-07-20T03:12:34;11.70;;;3.38;;
47762;SDS011;33526;42.690;23.322;2023-07-20T03:15:00;8.63;;;3.35;;
47762;SDS011;33526;42.690;23.322;2023-07-20T03:17:28;10.07;;;2.97;;
47762;SDS011;33526;42.690;23.322;2023-07-20T03:19:54;6.85;;;2.33;;
47762;SDS011;33526;42.690;23.322;2023-07-20T03:22:20;12.63;;;3.30;;
47762;SDS011;33526;42.690;23.322;2023-07-20T03:24:47;13.30;;;2.93;;
47762;SDS011;33526;42.690;23.322;2023-07-20T03:27:13;11.55;;;2.83;;
47762;SDS011;33526;42.690;23.322;2023-07-20T03:29:39;13.60;;;3.35;;
47762;SDS011;33526;42.690;23.322;2023-07-20T03:32:05;10.25;;;2.85;;
47762;SDS011;33526;42.690;23.322;2023-07-20T03:34:31;7.45;;;3.05;;
47762;SDS011;33526;42.690;23.322;2023-07-20T03:36:57;11.25;;;2.72;;
47762;SDS011;33526;42.690;23.322;2023-07-20T03:39:25;13.55;;;3.13;;
47762;SDS011;33526;42.690;23.322;2023-07-20T03:41:51;15.63;;;3.05;;
47762;SDS011;33526;42.690;23.322;2023-07-20T03:44:17;10.15;;;3.17;;
47762;SDS011;33526;42.690;23.322;2023-07-20T03:46:43;8.10;;;3.25;;
47762;SDS011;33526;42.690;23.322;2023-07-20T03:49:09;14.17;;;3.40;;
47762;SDS011;33526;42.690;23.322;2023-07-20T03:54:01;10.63;;;3.28;;
47762;SDS011;33526;42.690;23.322;2023-07-20T03:56:27;7.40;;;3.15;;
47762;SDS011;33526;42.690;23.322;2023-07-20T03:58:53;18.45;;;3.97;;
47762;SDS011;33526;42.690;23.322;2023-07-20T04:01:19;12.13;;;3.08;;
47762;SDS011;33526;42.690;23.322;2023-07-20T04:03:44;10.60;;;3.47;;
47762;SDS011;33526;42.690;23.322;2023-07-20T04:06:10;10.63;;;3.38;;
47762;SDS011;33526;42.690;23.322;2023-07-20T04:08:36;10.75;;;3.67;;
47762;SDS011;33526;42.690;23.322;2023-07-20T04:11:02;20.15;;;3.30;;
47762;SDS011;33526;42.690;23.322;2023-07-20T04:13:28;14.45;;;3.88;;
47762;SDS011;33526;42.690;23.322;2023-07-20T04:15:54;11.30;;;3.65;;
47762;SDS011;33526;42.690;23.322;2023-07-20T04:18:20;15.13;;;3.40;;
47762;SDS011;33526;42.690;23.322;2023-07-20T04:20:46;15.95;;;3.38;;
47762;SDS011;33526;42.690;23.322;2023-07-20T04:23:11;10.60;;;3.10;;
47762;SDS011;33526;42.690;23.322;2023-07-20T04:25:39;13.77;;;4.45;;
47762;SDS011;33526;42.690;23.322;2023-07-20T04:28:08;10.90;;;3.47;;
47762;SDS011;33526;42.690;23.322;2023-07-20T04:30:34;11.35;;;3.35;;
47762;SDS011;33526;42.690;23.322;2023-07-20T04:33:01;7.30;;;3.28;;
47762;SDS011;33526;42.690;23.322;2023-07-20T04:35:46;11.77;;;3.47;;
47762;SDS011;33526;42.690;23.322;2023-07-20T04:38:20;13.27;;;3.78;;
47762;SDS011;33526;42.690;23.322;2023-07-20T04:40:46;19.10;;;4.43;;
47762;SDS011;33526;42.690;23.322;2023-07-20T04:43:13;10.98;;;3.97;;
47762;SDS011;33526;42.690;23.322;2023-07-20T04:45:40;17.33;;;4.25;;
47762;SDS011;33526;42.690;23.322;2023-07-20T04:48:09;11.95;;;4.13;;
47762;SDS011;33526;42.690;23.322;2023-07-20T04:50:43;12.02;;;4.07;;
47762;SDS011;33526;42.690;23.322;2023-07-20T04:53:10;16.13;;;4.30;;
47762;SDS011;33526;42.690;23.322;2023-07-20T04:55:37;12.65;;;3.85;;
47762;SDS011;33526;42.690;23.322;2023-07-20T04:58:03;12.30;;;3.88;;
47762;SDS011;33526;42.690;23.322;2023-07-20T05:00:30;14.35;;;4.22;;
47762;SDS011;33526;42.690;23.322;2023-07-20T05:02:56;16.90;;;3.67;;
47762;SDS011;33526;42.690;23.322;2023-07-20T05:05:22;10.07;;;3.97;;
47762;SDS011;33526;42.690;23.322;2023-07-20T05:07:48;8.33;;;3.07;;
47762;SDS011;33526;42.690;23.322;2023-07-20T05:10:14;10.60;;;3.27;;
47762;SDS011;33526;42.690;23.322;2023-07-20T05:12:40;13.83;;;4.20;;
47762;SDS011;33526;42.690;23.322;2023-07-20T05:15:11;13.35;;;3.97;;
47762;SDS011;33526;42.690;23.322;2023-07-20T05:17:37;10.90;;;3.83;;
47762;SDS011;33526;42.690;23.322;2023-07-20T05:20:02;11.97;;;2.77;;
47762;SDS011;33526;42.690;23.322;2023-07-20T05:24:55;14.10;;;3.45;;
47762;SDS011;33526;42.690;23.322;2023-07-20T05:27:20;14.20;;;4.03;;
47762;SDS011;33526;42.690;23.322;2023-07-20T05:29:46;13.93;;;3.47;;
47762;SDS011;33526;42.690;23.322;2023-07-20T05:32:14;13.43;;;3.33;;
47762;SDS011;33526;42.690;23.322;2023-07-20T05:34:41;13.77;;;4.80;;
47762;SDS011;33526;42.690;23.322;2023-07-20T05:37:07;25.90;;;14.37;;
47762;SDS011;33526;42.690;23.322;2023-07-20T05:39:32;21.73;;;8.23;;
47762;SDS011;33526;42.690;23.322;2023-07-20T05:41:58;21.27;;;11.70;;
47762;SDS011;33526;42.690;23.322;2023-07-20T05:44:24;23.13;;;5.17;;
47762;SDS011;33526;42.690;23.322;2023-07-20T05:46:49;11.80;;;4.20;;
47762;SDS011;33526;42.690;23.322;2023-07-20T05:49:15;11.90;;;3.53;;
47762;SDS011;33526;42.690;23.322;2023-07-20T05:51:41;20.10;;;4.50;;
47762;SDS011;33526;42.690;23.322;2023-07-20T05:54:07;10.87;;;4.67;;
47762;SDS011;33526;42.690;23.322;2023-07-20T05:56:33;20.67;;;5.37;;
47762;SDS011;33526;42.690;23.322;2023-07-20T05:58:59;16.53;;;4.87;;
47762;SDS011;33526;42.690;23.322;2023-07-20T06:01:24;21.13;;;6.70;;
47762;SDS011;33526;42.690;23.322;2023-07-20T06:03:52;12.93;;;4.75;;
47762;SDS011;33526;42.690;23.322;2023-07-20T06:06:18;10.35;;;4.97;;
47762;SDS011;33526;42.690;23.322;2023-07-20T06:08:44;14.67;;;4.47;;
47762;SDS011;33526;42.690;23.322;2023-07-20T06:11:09;19.37;;;5.03;;
47762;SDS011;33526;42.690;23.322;2023-07-20T06:13:36;14.80;;;4.50;;
47762;SDS011;33526;42.690;23.322;2023-07-20T06:18:28;10.77;;;4.28;;
47762;SDS011;33526;42.690;23.322;2023-07-20T06:20:55;14.27;;;4.32;;
47762;SDS011;33526;42.690;23.322;2023-07-20T06:23:20;15.47;;;4.70;;
47762;SDS011;33526;42.690;23.322;2023-07-20T06:25:46;17.37;;;5.53;;
47762;SDS011;33526;42.690;23.322;2023-07-20T06:28:13;18.27;;;4.80;;
47762;SDS011;33526;42.690;23.322;2023-07-20T06:30:39;18.17;;;6.13;;
47762;SDS011;33526;42.690;23.322;2023-07-20T06:33:04;16.17;;;4.57;;
47762;SDS011;33526;42.690;23.322;2023-07-20T06:35:32;10.93;;;4.30;;
47762;SDS011;33526;42.690;23.322;2023-07-20T06:37:59;16.08;;;5.45;;
47762;SDS011;33526;42.690;23.322;2023-07-20T06:40:25;15.07;;;5.00;;
47762;SDS011;33526;42.690;23.322;2023-07-20T06:42:51;15.40;;;5.33;;
47762;SDS011;33526;42.690;23.322;2023-07-20T06:45:17;15.80;;;4.93;;
47762;SDS011;33526;42.690;23.322;2023-07-20T06:47:42;13.63;;;5.27;;
47762;SDS011;33526;42.690;23.322;2023-07-20T06:50:08;19.93;;;5.67;;
47762;SDS011;33526;42.690;23.322;2023-07-20T06:52:34;18.63;;;5.35;;
47762;SDS011;33526;42.690;23.322;2023-07-20T06:55:00;15.73;;;5.10;;
47762;SDS011;33526;42.690;23.322;2023-07-20T06:57:27;16.13;;;5.20;;
47762;SDS011;33526;42.690;23.322;2023-07-20T06:59:54;14.52;;;5.22;;
47762;SDS011;33526;42.690;23.322;2023-07-20T07:02:20;17.83;;;5.30;;
47762;SDS011;33526;42.690;23.322;2023-07-20T07:04:50;15.75;;;4.75;;
47762;SDS011;33526;42.690;23.322;2023-07-20T07:07:18;17.33;;;5.50;;
47762;SDS011;33526;42.690;23.322;2023-07-20T07:09:47;12.55;;;4.80;;
47762;SDS011;33526;42.690;23.322;2023-07-20T07:12:45;14.73;;;4.75;;
47762;SDS011;33526;42.690;23.322;2023-07-20T07:15:43;13.85;;;4.90;;
47762;SDS011;33526;42.690;23.322;2023-07-20T07:18:11;24.92;;;5.07;;
47762;SDS011;33526;42.690;23.322;2023-07-20T07:20:36;12.33;;;4.67;;
47762;SDS011;33526;42.690;23.322;2023-07-20T07:23:02;16.00;;;6.40;;
47762;SDS011;33526;42.690;23.322;2023-07-20T07:25:28;14.13;;;5.10;;
47762;SDS011;33526;42.690;23.322;2023-07-20T07:27:53;14.90;;;4.93;;
47762;SDS011;33526;42.690;23.322;2023-07-20T07:30:21;15.93;;;4.70;;
47762;SDS011;33526;42.690;23.322;2023-07-20T07:32:47;18.77;;;7.20;;
47762;SDS011;33526;42.690;23.322;2023-07-20T07:35:15;10.13;;;4.03;;
47762;SDS011;33526;42.690;23.322;2023-07-20T07:37:40;15.43;;;4.63;;
47762;SDS011;33526;42.690;23.322;2023-07-20T07:40:06;17.00;;;4.70;;
47762;SDS011;33526;42.690;23.322;2023-07-20T07:42:33;19.55;;;5.93;;
47762;SDS011;33526;42.690;23.322;2023-07-20T07:44:58;19.97;;;7.57;;
47762;SDS011;33526;42.690;23.322;2023-07-20T07:47:24;16.03;;;5.43;;
47762;SDS011;33526;42.690;23.322;2023-07-20T07:49:50;18.30;;;4.93;;
47762;SDS011;33526;42.690;23.322;2023-07-20T07:52:16;21.23;;;5.50;;
47762;SDS011;33526;42.690;23.322;2023-07-20T07:54:41;21.93;;;4.80;;
47762;SDS011;33526;42.690;23.322;2023-07-20T07:57:07;11.37;;;4.20;;
47762;SDS011;33526;42.690;23.322;2023-07-20T07:59:33;10.73;;;4.90;;
47762;SDS011;33526;42.690;23.322;2023-07-20T08:02:02;19.33;;;6.00;;
47762;SDS011;33526;42.690;23.322;2023-07-20T08:04:29;16.90;;;4.50;;
47762;SDS011;33526;42.690;23.322;2023-07-20T08:06:55;32.22;;;5.28;;
47762;SDS011;33526;42.690;23.322;2023-07-20T08:09:20;15.60;;;5.10;;
47762;SDS011;33526;42.690;23.322;2023-07-20T08:11:46;11.30;;;4.87;;
47762;SDS011;33526;42.690;23.322;2023-07-20T08:16:44;11.15;;;4.15;;
47762;SDS011;33526;42.690;23.322;2023-07-20T08:19:10;11.45;;;4.13;;
47762;SDS011;33526;42.690;23.322;2023-07-20T08:21:36;11.20;;;3.93;;
47762;SDS011;33526;42.690;23.322;2023-07-20T08:24:02;22.33;;;3.77;;
47762;SDS011;33526;42.690;23.322;2023-07-20T08:26:28;11.57;;;3.40;;
47762;SDS011;33526;42.690;23.322;2023-07-20T08:28:53;10.13;;;3.57;;
47762;SDS011;33526;42.690;23.322;2023-07-20T08:31:19;7.57;;;3.47;;
47762;SDS011;33526;42.690;23.322;2023-07-20T08:33:45;10.70;;;3.27;;
47762;SDS011;33526;42.690;23.322;2023-07-20T08:36:16;7.32;;;3.50;;
47762;SDS011;33526;42.690;23.322;2023-07-20T08:38:41;11.98;;;4.13;;
47762;SDS011;33526;42.690;23.322;2023-07-20T08:41:08;11.93;;;5.00;;
47762;SDS011;33526;42.690;23.322;2023-07-20T08:43:34;16.83;;;4.75;;
47762;SDS011;33526;42.690;23.322;2023-07-20T08:46:01;12.05;;;4.28;;
47762;SDS011;33526;42.690;23.322;2023-07-20T08:48:28;9.23;;;3.22;;
47762;SDS011;33526;42.690;23.322;2023-07-20T08:50:56;13.35;;;3.40;;
47762;SDS011;33526;42.690;23.322;2023-07-20T08:53:25;13.23;;;3.15;;
47762;SDS011;33526;42.690;23.322;2023-07-20T08:55:52;11.52;;;2.78;;
47762;SDS011;33526;42.690;23.322;2023-07-20T08:58:18;15.70;;;3.40;;
47762;SDS011;33526;42.690;23.322;2023-07-20T09:00:45;22.88;;;3.05;;
47762;SDS011;33526;42.690;23.322;2023-07-20T09:05:37;11.55;;;3.53;;
47762;SDS011;33526;42.690;23.322;2023-07-20T09:08:05;16.25;;;5.22;;
47762;SDS011;33526;42.690;23.322;2023-07-20T09:10:31;13.40;;;4.03;;
47762;SDS011;33526;42.690;23.322;2023-07-20T09:12:56;10.60;;;2.90;;
47762;SDS011;33526;42.690;23.322;2023-07-20T09:15:22;13.50;;;3.07;;
47762;SDS011;33526;42.690;23.322;2023-07-20T09:17:48;12.50;;;2.60;;
47762;SDS011;33526;42.690;23.322;2023-07-20T09:20:18;18.25;;;3.30;;
47762;SDS011;33526;42.690;23.322;2023-07-20T09:22:45;12.15;;;3.28;;
47762;SDS011;33526;42.690;23.322;2023-07-20T09:27:45;5.90;;;2.72;;
47762;SDS011;33526;42.690;23.322;2023-07-20T09:30:13;13.40;;;4.30;;
47762;SDS011;33526;42.690;23.322;2023-07-20T09:32:43;9.30;;;2.72;;
47762;SDS011;33526;42.690;23.322;2023-07-20T09:35:16;14.30;;;3.63;;
47762;SDS011;33526;42.690;23.322;2023-07-20T09:37:58;10.25;;;2.70;;
47762;SDS011;33526;42.690;23.322;2023-07-20T09:40:25;8.20;;;3.78;;
47762;SDS011;33526;42.690;23.322;2023-07-20T09:45:18;9.98;;;3.08;;
47762;SDS011;33526;42.690;23.322;2023-07-20T09:47:50;18.67;;;3.10;;
47762;SDS011;33526;42.690;23.322;2023-07-20T09:50:17;7.88;;;3.10;;
47762;SDS011;33526;42.690;23.322;2023-07-20T09:52:42;11.63;;;2.67;;
47762;SDS011;33526;42.690;23.322;2023-07-20T09:55:10;9.43;;;2.97;;
47762;SDS011;33526;42.690;23.322;2023-07-20T09:57:38;11.18;;;3.25;;
47762;SDS011;33526;42.690;23.322;2023-07-20T10:00:05;9.20;;;2.72;;
47762;SDS011;33526;42.690;23.322;2023-07-20T10:02:39;11.70;;;3.72;;
47762;SDS011;33526;42.690;23.322;2023-07-20T10:05:11;13.38;;;3.30;;
47762;SDS011;33526;42.690;23.322;2023-07-20T10:07:40;7.70;;;2.50;;
47762;SDS011;33526;42.690;23.322;2023-07-20T10:10:15;11.60;;;3.38;;
47762;SDS011;33526;42.690;23.322;2023-07-20T10:12:42;10.85;;;3.00;;
47762;SDS011;33526;42.690;23.322;2023-07-20T10:15:14;9.57;;;2.90;;
47762;SDS011;33526;42.690;23.322;2023-07-20T10:17:55;10.02;;;3.15;;
47762;SDS011;33526;42.690;23.322;2023-07-20T10:20:28;6.55;;;2.90;;
47762;SDS011;33526;42.690;23.322;2023-07-20T10:22:58;9.43;;;2.80;;
47762;SDS011;33526;42.690;23.322;2023-07-20T10:25:24;11.77;;;3.25;;
47762;SDS011;33526;42.690;23.322;2023-07-20T10:27:50;9.63;;;2.67;;
47762;SDS011;33526;42.690;23.322;2023-07-20T10:30:16;7.27;;;2.60;;
47762;SDS011;33526;42.690;23.322;2023-07-20T10:32:43;6.15;;;2.72;;
47762;SDS011;33526;42.690;23.322;2023-07-20T10:35:13;11.50;;;2.40;;
47762;SDS011;33526;42.690;23.322;2023-07-20T10:37:55;6.65;;;2.42;;
47762;SDS011;33526;42.690;23.322;2023-07-20T10:40:32;6.07;;;2.92;;
47762;SDS011;33526;42.690;23.322;2023-07-20T10:43:09;6.95;;;2.33;;
47762;SDS011;33526;42.690;23.322;2023-07-20T10:48:14;13.88;;;2.70;;
47762;SDS011;33526;42.690;23.322;2023-07-20T10:53:39;11.70;;;2.55;;
47762;SDS011;33526;42.690;23.322;2023-07-20T10:56:09;9.27;;;2.65;;
47762;SDS011;33526;42.690;23.322;2023-07-20T10:58:38;9.35;;;2.67;;
47762;SDS011;33526;42.690;23.322;2023-07-20T11:01:08;11.45;;;2.78;;
47762;SDS011;33526;42.690;23.322;2023-07-20T11:03:39;9.20;;;2.78;;
47762;SDS011;33526;42.690;23.322;2023-07-20T11:08:55;7.25;;;2.72;;
47762;SDS011;33526;42.690;23.322;2023-07-20T11:11:40;6.53;;;2.65;;
47762;SDS011;33526;42.690;23.322;2023-07-20T11:14:10;10.55;;;2.75;;
47762;SDS011;33526;42.690;23.322;2023-07-20T11:16:47;11.18;;;2.97;;
47762;SDS011;33526;42.690;23.322;2023-07-20T11:19:14;12.85;;;2.80;;
47762;SDS011;33526;42.690;23.322;2023-07-20T11:21:45;12.75;;;2.70;;
47762;SDS011;33526;42.690;23.322;2023-07-20T11:24:12;20.95;;;2.75;;
47762;SDS011;33526;42.690;23.322;2023-07-20T11:26:48;7.30;;;2.90;;
47762;SDS011;33526;42.690;23.322;2023-07-20T11:29:20;11.02;;;3.25;;
47762;SDS011;33526;42.690;23.322;2023-07-20T11:31:48;10.35;;;3.63;;
47762;SDS011;33526;42.690;23.322;2023-07-20T11:34:16;10.77;;;3.28;;
47762;SDS011;33526;42.690;23.322;2023-07-20T11:36:50;9.77;;;3.42;;
47762;SDS011;33526;42.690;23.322;2023-07-20T11:39:17;13.98;;;4.10;;
47762;SDS011;33526;42.690;23.322;2023-07-20T11:41:50;10.02;;;3.63;;
47762;SDS011;33526;42.690;23.322;2023-07-20T11:44:26;9.52;;;3.92;;
47762;SDS011;33526;42.690;23.322;2023-07-20T11:47:00;9.07;;;3.42;;
47762;SDS011;33526;42.690;23.322;2023-07-20T11:49:27;11.70;;;3.38;;
47762;SDS011;33526;42.690;23.322;2023-07-20T11:51:53;7.77;;;2.93;;
47762;SDS011;33526;42.690;23.322;2023-07-20T11:54:20;9.87;;;3.47;;
47762;SDS011;33526;42.690;23.322;2023-07-20T11:56:45;7.65;;;3.30;;
47762;SDS011;33526;42.690;23.322;2023-07-20T11:59:11;11.43;;;3.53;;
47762;SDS011;33526;42.690;23.322;2023-07-20T12:01:39;11.23;;;3.70;;
47762;SDS011;33526;42.690;23.322;2023-07-20T12:04:06;9.85;;;3.97;;
47762;SDS011;33526;42.690;23.322;2023-07-20T12:06:32;13.25;;;4.18;;
47762;SDS011;33526;42.690;23.322;2023-07-20T12:08:59;9.57;;;4.00;;
47762;SDS011;33526;42.690;23.322;2023-07-20T12:11:38;5.72;;;3.42;;
47762;SDS011;33526;42.690;23.322;2023-07-20T12:14:07;8.05;;;3.85;;
47762;SDS011;33526;42.690;23.322;2023-07-20T12:16:35;12.73;;;2.83;;
47762;SDS011;33526;42.690;23.322;2023-07-20T12:19:04;11.55;;;3.53;;
47762;SDS011;33526;42.690;23.322;2023-07-20T12:21:34;11.20;;;3.15;;
47762;SDS011;33526;42.690;23.322;2023-07-20T12:24:02;13.43;;;3.72;;
47762;SDS011;33526;42.690;23.322;2023-07-20T12:26:29;10.70;;;5.05;;
47762;SDS011;33526;42.690;23.322;2023-07-20T12:28:55;5.93;;;2.42;;
47762;SDS011;33526;42.690;23.322;2023-07-20T12:31:23;15.80;;;3.05;;
47762;SDS011;33526;42.690;23.322;2023-07-20T12:33:52;12.10;;;3.15;;
47762;SDS011;33526;42.690;23.322;2023-07-20T12:36:20;8.25;;;3.63;;
47762;SDS011;33526;42.690;23.322;2023-07-20T12:38:47;8.20;;;2.85;;
47762;SDS011;33526;42.690;23.322;2023-07-20T12:41:13;14.00;;;5.88;;
47762;SDS011;33526;42.690;23.322;2023-07-20T12:43:40;8.43;;;3.50;;
47762;SDS011;33526;42.690;23.322;2023-07-20T12:46:09;7.55;;;2.72;;
47762;SDS011;33526;42.690;23.322;2023-07-20T12:51:02;13.93;;;3.58;;
47762;SDS011;33526;42.690;23.322;2023-07-20T12:53:30;9.32;;;3.05;;
47762;SDS011;33526;42.690;23.322;2023-07-20T12:56:03;6.28;;;2.70;;
47762;SDS011;33526;42.690;23.322;2023-07-20T12:58:31;8.77;;;3.38;;
47762;SDS011;33526;42.690;23.322;2023-07-20T13:00:58;11.25;;;3.50;;
47762;SDS011;33526;42.690;23.322;2023-07-20T13:03:27;10.15;;;3.05;;
47762;SDS011;33526;42.690;23.322;2023-07-20T13:05:56;6.40;;;2.80;;
47762;SDS011;33526;42.690;23.322;2023-07-20T13:08:23;10.65;;;2.60;;
47762;SDS011;33526;42.690;23.322;2023-07-20T13:10:50;8.40;;;3.35;;
47762;SDS011;33526;42.690;23.322;2023-07-20T13:13:20;9.15;;;2.92;;
47762;SDS011;33526;42.690;23.322;2023-07-20T13:15:46;13.53;;;2.93;;
47762;SDS011;33526;42.690;23.322;2023-07-20T13:20:41;8.73;;;3.15;;
47762;SDS011;33526;42.690;23.322;2023-07-20T13:23:06;11.93;;;2.87;;
47762;SDS011;33526;42.690;23.322;2023-07-20T13:25:32;6.63;;;2.63;;
47762;SDS011;33526;42.690;23.322;2023-07-20T13:27:58;7.33;;;2.73;;
47762;SDS011;33526;42.690;23.322;2023-07-20T13:30:23;12.00;;;2.90;;
47762;SDS011;33526;42.690;23.322;2023-07-20T13:32:50;9.13;;;2.67;;
47762;SDS011;33526;42.690;23.322;2023-07-20T13:35:16;11.48;;;3.40;;
47762;SDS011;33526;42.690;23.322;2023-07-20T13:37:42;14.90;;;3.00;;
47762;SDS011;33526;42.690;23.322;2023-07-20T13:40:08;11.10;;;2.83;;
47762;SDS011;33526;42.690;23.322;2023-07-20T13:42:38;11.68;;;3.33;;
47762;SDS011;33526;42.690;23.322;2023-07-20T13:45:05;15.32;;;3.22;;
47762;SDS011;33526;42.690;23.322;2023-07-20T13:47:31;12.10;;;3.38;;
47762;SDS011;33526;42.690;23.322;2023-07-20T13:49:57;5.80;;;2.90;;
47762;SDS011;33526;42.690;23.322;2023-07-20T13:52:22;13.67;;;3.17;;
47762;SDS011;33526;42.690;23.322;2023-07-20T13:54:50;12.98;;;3.20;;
47762;SDS011;33526;42.690;23.322;2023-07-20T13:57:16;10.30;;;2.67;;
47762;SDS011;33526;42.690;23.322;2023-07-20T13:59:41;9.47;;;2.77;;
47762;SDS011;33526;42.690;23.322;2023-07-20T14:02:08;8.13;;;2.33;;
47762;SDS011;33526;42.690;23.322;2023-07-20T14:04:36;7.10;;;3.10;;
47762;SDS011;33526;42.690;23.322;2023-07-20T14:07:02;12.15;;;2.28;;
47762;SDS011;33526;42.690;23.322;2023-07-20T14:09:27;16.87;;;2.83;;
47762;SDS011;33526;42.690;23.322;2023-07-20T14:11:54;9.63;;;2.55;;
47762;SDS011;33526;42.690;23.322;2023-07-20T14:14:23;13.90;;;3.67;;
47762;SDS011;33526;42.690;23.322;2023-07-20T14:16:49;11.83;;;2.60;;
47762;SDS011;33526;42.690;23.322;2023-07-20T14:19:14;10.47;;;2.70;;
47762;SDS011;33526;42.690;23.322;2023-07-20T14:21:43;11.97;;;3.20;;
47762;SDS011;33526;42.690;23.322;2023-07-20T14:24:09;13.52;;;3.90;;
47762;SDS011;33526;42.690;23.322;2023-07-20T14:26:35;12.20;;;2.77;;
47762;SDS011;33526;42.690;23.322;2023-07-20T14:29:00;9.50;;;2.63;;
47762;SDS011;33526;42.690;23.322;2023-07-20T14:31:27;11.10;;;2.78;;
47762;SDS011;33526;42.690;23.322;2023-07-20T14:33:52;15.90;;;2.93;;
47762;SDS011;33526;42.690;23.322;2023-07-20T14:36:18;13.33;;;2.80;;
47762;SDS011;33526;42.690;23.322;2023-07-20T14:38:43;9.23;;;2.60;;
47762;SDS011;33526;42.690;23.322;2023-07-20T14:41:11;9.18;;;2.55;;
47762;SDS011;33526;42.690;23.322;2023-07-20T14:43:39;12.20;;;3.22;;
47762;SDS011;33526;42.690;23.322;2023-07-20T14:46:04;10.95;;;2.85;;
47762;SDS011;33526;42.690;23.322;2023-07-20T14:48:31;9.55;;;2.97;;
47762;SDS011;33526;42.690;23.322;2023-07-20T14:50:57;9.77;;;2.57;;
47762;SDS011;33526;42.690;23.322;2023-07-20T14:53:24;11.80;;;3.20;;
47762;SDS011;33526;42.690;23.322;2023-07-20T14:55:53;10.18;;;3.05;;
47762;SDS011;33526;42.690;23.322;2023-07-20T14:58:23;7.03;;;2.70;;
47762;SDS011;33526;42.690;23.322;2023-07-20T15:00:49;13.40;;;3.57;;
47762;SDS011;33526;42.690;23.322;2023-07-20T15:03:15;10.77;;;2.93;;
47762;SDS011;33526;42.690;23.322;2023-07-20T15:05:40;5.83;;;3.10;;
47762;SDS011;33526;42.690;23.322;2023-07-20T15:10:33;8.15;;;2.80;;
47762;SDS011;33526;42.690;23.322;2023-07-20T15:12:59;11.75;;;2.88;;
47762;SDS011;33526;42.690;23.322;2023-07-20T15:15:25;10.03;;;3.70;;
47762;SDS011;33526;42.690;23.322;2023-07-20T15:17:51;7.83;;;2.80;;
47762;SDS011;33526;42.690;23.322;2023-07-20T15:20:17;8.25;;;3.50;;
47762;SDS011;33526;42.690;23.322;2023-07-20T15:22:43;12.35;;;4.03;;